»·PEaware :: SWQ14 KBFI-KRNO

SWQ14 :: KBFI-KRNO

FLIGHT INFORMATION

Flight Status: Arrived
Operator: Unknown
More flights by this operator :: More flights under this callsign
Pilot: Luke O. (6875)
Aircraft: BOEING 737-300
(B733)
More flights by this aircraft type
Origin: KBFI Boeing Field/King Co Intl
United States
Destination: KRNO Reno/Tahoe Intl
United States
More flights between these airports :: More routes between these airports
Route: + / LKV140048 HAART EELZA2
File this flight plan on PilotEdge
Remarks: Swiftflight
Altitude:
(Current/Filed)
33,000ft
Speed:
(Current/Filed)
480kts
Departed: 11-Oct-17 03:15 PM
Arrived: 11-Oct-17 04:42 PM
Distance/Time
Traveled:
494nm/1:27
Distance/Time
To Go:
Arrived

Flight Plot

Page will automatically refresh every two minutes.

Flight plan parsing failed; only flown route is shown


Map Options




Map Legend


Flown Route
Filed Route
Departure Airport
Arrival Airport
Navaid (VOR, NDB)
Fix

Horizontal Profiles

Position Reports

Time Latitude Longitude Heading Altitude Ground
Speed
11-Oct-17 14:51 47.537353 -122.305123 167 24ft 0kts
11-Oct-17 14:52 47.537353 -122.305123 167 24ft 0kts
11-Oct-17 14:53 47.537353 -122.305123 167 24ft 0kts
11-Oct-17 14:54 47.537353 -122.305123 167 24ft 0kts
11-Oct-17 14:55 47.537353 -122.305123 167 24ft 0kts
11-Oct-17 14:56 47.537353 -122.305123 167 24ft 0kts
11-Oct-17 14:57 47.537353 -122.305123 167 24ft 0kts
11-Oct-17 14:58 47.537353 -122.305123 167 24ft 0kts
11-Oct-17 14:59 47.537353 -122.305123 167 24ft 0kts
11-Oct-17 15:00 47.537353 -122.305123 167 24ft 0kts
11-Oct-17 15:01 47.537353 -122.305123 167 24ft 0kts
11-Oct-17 15:02 47.537353 -122.305123 167 24ft 0kts
11-Oct-17 15:03 47.537353 -122.305123 167 24ft 0kts
11-Oct-17 15:04 47.537353 -122.305123 167 24ft 0kts
11-Oct-17 15:05 47.537353 -122.305123 167 24ft 0kts
11-Oct-17 15:06 47.537353 -122.305123 167 24ft 0kts
11-Oct-17 15:07 47.537353 -122.305123 167 24ft 0kts
11-Oct-17 15:08 47.537353 -122.305123 167 24ft 0kts
11-Oct-17 15:09 47.537353 -122.305123 167 24ft 0kts
11-Oct-17 15:10 47.537353 -122.305123 167 24ft 0kts
11-Oct-17 15:11 47.537353 -122.305123 167 24ft 0kts
11-Oct-17 15:12 47.537353 -122.305123 167 24ft 0kts
11-Oct-17 15:13 47.537353 -122.305123 167 24ft 0kts
11-Oct-17 15:14 47.537353 -122.305123 167 24ft 0kts
11-Oct-17 15:15 47.537353 -122.305123 167 24ft 0kts
11-Oct-17 15:16 47.537183 -122.305167 225 23ft 4kts
11-Oct-17 15:17 47.540104 -122.308281 328 24ft 19kts
11-Oct-17 15:18 47.540538 -122.310937 240 21ft 2kts
11-Oct-17 15:19 47.520322 -122.294137 151 1061ft 201kts
11-Oct-17 15:20 47.470616 -122.249019 159 4903ft 230kts
11-Oct-17 15:21 47.412672 -122.280760 185 7791ft 268kts
11-Oct-17 15:22 47.336267 -122.267207 169 10824ft 314kts
11-Oct-17 15:23 47.250191 -122.235516 167 14121ft 342kts
11-Oct-17 15:24 47.157356 -122.198965 167 17480ft 360kts
11-Oct-17 15:25 47.058714 -122.160025 167 20472ft 378kts
11-Oct-17 15:26 46.955361 -122.119369 168 23093ft 398kts
11-Oct-17 15:27 46.850902 -122.078814 169 25405ft 414kts
11-Oct-17 15:28 46.738656 -122.035090 169 27716ft 427kts
11-Oct-17 15:29 46.622769 -121.990062 169 29971ft 434kts
11-Oct-17 15:30 46.508222 -121.945978 169 32415ft 428kts
11-Oct-17 15:31 46.394004 -121.901984 169 33019ft 418kts
11-Oct-17 15:32 46.282458 -121.859266 169 33025ft 418kts
11-Oct-17 15:33 46.170320 -121.816446 170 33027ft 418kts
11-Oct-17 15:34 46.057938 -121.773731 169 33021ft 418kts
11-Oct-17 15:36 45.946171 -121.731430 169 33013ft 418kts
11-Oct-17 15:37 45.837997 -121.690718 169 33006ft 418kts
11-Oct-17 15:38 45.725623 -121.648560 169 33002ft 417kts
11-Oct-17 15:39 45.613647 -121.606692 169 33004ft 418kts
11-Oct-17 15:40 45.501708 -121.565018 170 33001ft 418kts
11-Oct-17 15:41 45.389584 -121.523436 170 33002ft 418kts
11-Oct-17 15:42 45.277362 -121.482011 169 33001ft 418kts
11-Oct-17 15:43 45.164873 -121.440646 169 33002ft 418kts
11-Oct-17 15:44 45.052772 -121.399582 171 33005ft 417kts
11-Oct-17 15:45 44.941673 -121.359053 172 33000ft 411kts
11-Oct-17 15:46 44.835992 -121.320457 173 32989ft 411kts
11-Oct-17 15:47 44.725787 -121.280552 173 32984ft 411kts
11-Oct-17 15:48 44.616339 -121.241102 173 32984ft 411kts
11-Oct-17 15:49 44.506271 -121.201581 173 32983ft 411kts
11-Oct-17 15:50 44.395847 -121.162076 173 32982ft 409kts
11-Oct-17 15:51 44.286661 -121.123182 174 32983ft 407kts
11-Oct-17 15:52 44.177475 -121.084493 175 32994ft 404kts
11-Oct-17 15:53 44.068796 -121.047548 174 33002ft 403kts
11-Oct-17 15:54 43.960690 -121.009512 174 33010ft 401kts
11-Oct-17 15:55 43.855984 -120.972784 175 33001ft 398kts
11-Oct-17 15:56 43.749314 -120.935514 175 33007ft 397kts
11-Oct-17 15:57 43.642076 -120.898159 175 33009ft 397kts
11-Oct-17 15:58 43.535153 -120.861054 175 33009ft 398kts
11-Oct-17 15:59 43.428507 -120.824172 175 33010ft 397kts
11-Oct-17 16:00 43.321531 -120.787317 175 33011ft 397kts
11-Oct-17 16:01 43.214540 -120.750591 175 33010ft 397kts
11-Oct-17 16:02 43.107609 -120.714015 175 33005ft 397kts
11-Oct-17 16:03 43.000687 -120.677559 176 33007ft 395kts
11-Oct-17 16:04 42.898151 -120.642718 178 32997ft 387kts
11-Oct-17 16:05 42.795601 -120.608070 179 32996ft 386kts
11-Oct-17 16:06 42.691758 -120.573044 179 32999ft 385kts
11-Oct-17 16:07 42.587979 -120.538168 179 32999ft 385kts
11-Oct-17 16:08 42.484424 -120.502558 171 32989ft 397kts
11-Oct-17 16:09 42.391416 -120.400690 152 33029ft 440kts
11-Oct-17 16:10 42.297919 -120.301471 154 33003ft 432kts
11-Oct-17 16:11 42.202866 -120.201777 154 33014ft 434kts
11-Oct-17 16:12 42.107658 -120.102348 154 33011ft 434kts
11-Oct-17 16:13 42.015985 -120.009770 168 33013ft 408kts
11-Oct-17 16:14 41.919849 -120.025937 198 33020ft 361kts
11-Oct-17 16:15 41.820361 -120.030967 191 33011ft 370kts
11-Oct-17 16:16 41.717548 -120.030144 191 33014ft 371kts
11-Oct-17 16:17 41.614509 -120.029076 191 33017ft 371kts
11-Oct-17 16:18 41.511809 -120.028003 191 33018ft 371kts
11-Oct-17 16:19 41.408738 -120.026933 191 33019ft 371kts
11-Oct-17 16:20 41.305124 -120.025858 190 31698ft 373kts
11-Oct-17 16:21 41.200267 -120.024800 190 30079ft 382kts
11-Oct-17 16:22 41.093058 -120.023688 189 30020ft 388kts
11-Oct-17 16:23 40.985448 -120.022564 189 30018ft 387kts
11-Oct-17 16:24 40.882341 -120.021510 189 29962ft 389kts
11-Oct-17 16:25 40.773040 -120.001450 175 29990ft 411kts
11-Oct-17 16:26 40.666223 -119.966023 176 29700ft 415kts
11-Oct-17 16:26 40.573447 -119.936687 175 27976ft 416kts
11-Oct-17 16:28 40.440837 -119.894010 174 25545ft 427kts
11-Oct-17 16:29 40.326647 -119.857545 173 23449ft 419kts
11-Oct-17 16:29 40.233378 -119.827800 173 21702ft 411kts
11-Oct-17 16:30 40.126323 -119.793754 172 19655ft 402kts
11-Oct-17 16:31 40.027672 -119.757523 157 17710ft 399kts
11-Oct-17 16:32 39.931710 -119.690440 156 16029ft 386kts
11-Oct-17 16:33 39.832360 -119.676481 183 15964ft 376kts
11-Oct-17 16:34 39.727961 -119.673285 182 15562ft 379kts
11-Oct-17 16:35 39.625625 -119.665654 178 13581ft 367kts
11-Oct-17 16:36 39.526387 -119.656088 181 11590ft 349kts
11-Oct-17 16:37 39.432589 -119.654859 181 9590ft 328kts
11-Oct-17 16:38 39.348566 -119.651700 181 9043ft 268kts
11-Oct-17 16:39 39.283748 -119.651043 204 9017ft 196kts
11-Oct-17 16:40 39.272710 -119.703954 273 9073ft 160kts
11-Oct-17 16:41 39.289030 -119.751973 332 9115ft 167kts
11-Oct-17 16:42 39.332975 -119.770253 350 9062ft 173kts
11-Oct-17 16:43 39.383468 -119.768933 359 7355ft 183kts
11-Oct-17 16:44 39.431490 -119.768329 349 5743ft 173kts
11-Oct-17 16:45 39.478525 -119.769153 353 4618ft 164kts
11-Oct-17 16:46 39.502861 -119.768432 86 4407ft 13kts
11-Oct-17 16:47 39.502866 -119.766699 88 4407ft 12kts
11-Oct-17 16:48 39.501128 -119.765423 111 4407ft 12kts
11-Oct-17 16:49 39.500460 -119.764615 143 4406ft 0kts
11-Oct-17 16:50 39.500460 -119.764615 143 4406ft 0kts
11-Oct-17 16:51 39.500460 -119.764615 143 4406ft 0kts
11-Oct-17 16:52 39.500460 -119.764615 143 4406ft 0kts
11-Oct-17 16:53 39.500460 -119.764615 143 4406ft 0kts
11-Oct-17 16:54 39.500460 -119.764615 143 4406ft 0kts
11-Oct-17 16:55 39.500460 -119.764615 143 4406ft 0kts
11-Oct-17 16:56 39.500460 -119.764615 143 4406ft 0kts
11-Oct-17 16:57 39.500460 -119.764615 143 4406ft 0kts
11-Oct-17 16:58 39.500460 -119.764615 143 4406ft 0kts
11-Oct-17 16:59 39.500460 -119.764615 143 4406ft 0kts
11-Oct-17 17:00 39.500460 -119.764615 143 4406ft 0kts

Navigation Log

Ident Type
Flight plan parsing failed, navigation log unavailable